Time;durP1;ratioP1;P1;durP2;ratioP2;P2;SDS_P1;SDS_P2;PMS_P1;PMS_P2;Temp;Humidity;BMP_temperature;BMP_pressure;BME280_temperature;BME280_humidity;BME280_pressure;Samples;Min_cycle;Max_cycle;Signal;HPM_P1;HPM_P2
2022/04/15 00:00:30;;;;;;;32.03;25.30;;;13.20;99.90;;;;;;5103408;28;20043;-50
2022/04/15 00:03:15;;;;;;;27.02;22.55;;;13.30;99.90;;;;;;5077264;28;20181;-49
2022/04/15 00:05:59;;;;;;;28.88;23.27;;;13.30;99.90;;;;;;5111124;28;20035;-52
2022/04/15 00:08:43;;;;;;;27.08;22.88;;;13.30;99.90;;;;;;5112377;28;20391;-50
2022/04/15 00:11:29;;;;;;;27.77;22.88;;;13.30;99.90;;;;;;5093527;28;20094;-48
2022/04/15 00:14:14;;;;;;;25.25;22.38;;;13.30;99.90;;;;;;5106867;28;20061;-51
2022/04/15 00:16:57;;;;;;;27.85;22.83;;;13.40;99.90;;;;;;5105498;28;20035;-51
2022/04/15 00:19:42;;;;;;;26.73;22.63;;;13.40;99.90;;;;;;5092284;28;20039;-48
2022/04/15 00:22:26;;;;;;;25.95;23.20;;;13.30;99.90;;;;;;5102140;28;20042;-51
2022/04/15 00:25:10;;;;;;;26.20;23.40;;;13.30;99.90;;;;;;5086532;28;20139;-49
2022/04/15 00:27:54;;;;;;;28.00;23.97;;;13.30;99.90;;;;;;5095934;28;20312;-48
2022/04/15 00:30:38;;;;;;;29.92;22.52;;;13.30;99.90;;;;;;5112934;28;20273;-49
2022/04/15 00:33:22;;;;;;;24.85;21.50;;;13.30;99.90;;;;;;5094033;28;20090;-50
2022/04/15 00:36:06;;;;;;;25.17;21.60;;;13.30;99.90;;;;;;5092165;28;20071;-52
2022/04/15 00:38:51;;;;;;;24.40;21.00;;;13.30;99.90;;;;;;5092242;28;20501;-50
2022/04/15 00:41:35;;;;;;;24.10;20.90;;;13.30;99.90;;;;;;5106299;28;20113;-50
2022/04/15 00:44:19;;;;;;;25.95;22.45;;;13.40;99.90;;;;;;5111876;28;20146;-52
2022/04/15 00:47:38;;;;;;;25.50;21.90;;;13.30;99.90;;;;;;5112738;28;20031;-50
2022/04/15 00:50:28;;;;;;;23.98;20.42;;;13.40;99.90;;;;;;5096363;28;20299;-48
2022/04/15 00:53:12;;;;;;;23.60;20.65;;;13.30;99.90;;;;;;5098390;28;20081;-49
2022/04/15 00:55:59;;;;;;;24.65;21.95;;;13.30;99.90;;;;;;5100040;28;20043;-50
2022/04/15 00:58:45;;;;;;;27.17;22.15;;;13.20;99.90;;;;;;5096170;28;20113;-54
2022/04/15 01:01:30;;;;;;;24.52;21.75;;;13.20;99.90;;;;;;5096751;28;20077;-49
2022/04/15 01:04:17;;;;;;;27.80;23.00;;;13.10;99.90;;;;;;5099819;28;20042;-52
2022/04/15 01:07:04;;;;;;;29.80;22.95;;;13.00;99.90;;;;;;5116835;28;20457;-52
2022/04/15 01:09:51;;;;;;;25.58;21.48;;;13.00;99.90;;;;;;5108877;28;20023;-50
2022/04/15 01:12:48;;;;;;;26.52;21.95;;;12.90;99.90;;;;;;5095389;28;20047;-51
2022/04/15 01:15:33;;;;;;;27.67;23.13;;;12.90;99.90;;;;;;5097095;28;20396;-54
2022/04/15 01:18:17;;;;;;;27.35;22.52;;;12.80;99.90;;;;;;5098407;28;20055;-51
2022/04/15 01:21:02;;;;;;;25.52;21.90;;;12.70;99.90;;;;;;5116381;28;20541;-52
2022/04/15 01:23:47;;;;;;;32.92;25.48;;;12.70;99.90;;;;;;5110390;28;20066;-53
2022/04/15 01:26:31;;;;;;;30.75;25.08;;;12.60;99.90;;;;;;5094881;28;20074;-50
2022/04/15 01:29:15;;;;;;;29.25;22.73;;;12.70;99.90;;;;;;5103601;28;20549;-49
2022/04/15 01:32:03;;;;;;;29.07;24.70;;;12.80;99.90;;;;;;5115385;28;20038;-53
2022/04/15 01:34:47;;;;;;;30.48;24.20;;;12.80;99.90;;;;;;5101667;28;20109;-48
2022/04/15 01:37:32;;;;;;;28.55;24.80;;;12.80;99.90;;;;;;5103717;28;20105;-52
2022/04/15 01:40:17;;;;;;;;;;;12.70;99.90;;;;;;5113299;28;20042;-47
2022/04/15 01:43:01;;;;;;;29.83;23.88;;;12.70;99.90;;;;;;5114802;28;19918;-51
2022/04/15 01:45:46;;;;;;;30.98;25.75;;;12.50;99.90;;;;;;5094271;28;20031;-50
2022/04/15 01:48:30;;;;;;;34.78;24.98;;;12.10;99.90;;;;;;5108563;28;20161;-49
2022/04/15 01:51:14;;;;;;;28.40;24.67;;;12.00;99.90;;;;;;5114744;28;20545;-50
2022/04/15 01:53:58;;;;;;;26.57;23.77;;;12.00;99.90;;;;;;5096055;28;20530;-49
2022/04/15 01:56:42;;;;;;;31.10;25.42;;;12.00;99.90;;;;;;5093487;28;20269;-48
2022/04/15 01:59:26;;;;;;;35.03;26.53;;;11.90;99.90;;;;;;5094580;28;20070;-50
2022/04/15 02:02:11;;;;;;;29.10;25.98;;;11.70;99.90;;;;;;5106846;28;20510;-50
2022/04/15 02:04:55;;;;;;;32.97;25.57;;;11.70;99.90;;;;;;5114067;28;20058;-49
2022/04/15 02:07:39;;;;;;;33.75;27.40;;;11.80;99.90;;;;;;5114514;27;20031;-49
2022/04/15 02:10:23;;;;;;;33.90;26.98;;;11.70;99.90;;;;;;5114408;28;20451;-51
2022/04/15 02:13:07;;;;;;;32.50;25.80;;;11.70;99.90;;;;;;5094104;28;20070;-47
2022/04/15 02:15:51;;;;;;;33.35;27.38;;;11.80;99.90;;;;;;5080195;28;20046;-50
2022/04/15 02:18:35;;;;;;;32.77;26.37;;;11.80;99.90;;;;;;5114636;28;20506;-50
2022/04/15 02:21:19;;;;;;;39.60;28.53;;;11.80;99.90;;;;;;5108370;28;20423;-53
2022/04/15 02:24:03;;;;;;;33.55;27.42;;;11.60;99.90;;;;;;5093653;28;20415;-51
2022/04/15 02:26:48;;;;;;;32.50;26.85;;;11.60;99.90;;;;;;5103202;28;20125;-48
2022/04/15 02:29:32;;;;;;;33.30;27.45;;;11.50;99.90;;;;;;5115380;28;20046;-53
2022/04/15 02:32:16;;;;;;;31.55;26.38;;;11.50;99.90;;;;;;5101729;28;20050;-54
2022/04/15 02:35:00;;;;;;;34.03;27.70;;;11.50;99.90;;;;;;5094535;28;20055;-51
2022/04/15 02:37:44;;;;;;;33.60;27.70;;;11.60;99.90;;;;;;5093703;28;20045;-49
2022/04/15 02:40:29;;;;;;;32.73;27.60;;;11.50;99.90;;;;;;5112369;28;20043;-53
2022/04/15 02:43:14;;;;;;;33.13;29.20;;;11.40;99.90;;;;;;5116487;27;20096;-48
2022/04/15 02:46:00;;;;;;;34.35;28.90;;;11.30;99.90;;;;;;5129391;27;20434;-50
2022/04/15 02:48:44;;;;;;;32.22;28.02;;;11.30;99.90;;;;;;5093237;28;20026;-50
2022/04/15 02:51:29;;;;;;;37.25;29.17;;;11.20;99.90;;;;;;5095254;28;20054;-48
2022/04/15 02:54:14;;;;;;;35.70;29.00;;;11.20;99.90;;;;;;5101459;28;20498;-53
2022/04/15 02:56:58;;;;;;;37.28;31.92;;;11.20;99.90;;;;;;5093200;28;20039;-54
2022/04/15 02:59:42;;;;;;;39.77;31.30;;;11.00;99.90;;;;;;5093711;28;20035;-50
2022/04/15 03:02:26;;;;;;;37.95;30.63;;;11.00;99.90;;;;;;5112313;28;20037;-56
2022/04/15 03:05:10;;;;;;;40.97;32.43;;;11.00;99.90;;;;;;5109441;28;20058;-52
2022/04/15 03:07:55;;;;;;;39.40;32.85;;;11.00;99.90;;;;;;5093607;28;20111;-48
2022/04/15 03:10:39;;;;;;;39.00;31.17;;;11.00;99.90;;;;;;5101058;28;20030;-51
2022/04/15 03:13:24;;;;;;;38.67;31.20;;;11.00;99.90;;;;;;5113557;28;20502;-52
2022/04/15 03:16:08;;;;;;;40.05;31.67;;;11.00;99.90;;;;;;5102251;28;20123;-49
2022/04/15 03:18:52;;;;;;;40.27;31.50;;;11.00;99.90;;;;;;5094435;28;20414;-51
2022/04/15 03:21:36;;;;;;;36.60;30.00;;;11.00;99.90;;;;;;5110531;28;20498;-48
2022/04/15 03:24:20;;;;;;;41.92;31.75;;;11.10;99.90;;;;;;5119408;28;20046;-48
2022/04/15 03:27:04;;;;;;;37.17;30.92;;;11.20;99.90;;;;;;5099499;28;20522;-48
2022/04/15 03:29:48;;;;;;;37.00;29.83;;;11.00;99.90;;;;;;5093199;28;20105;-50
2022/04/15 03:32:32;;;;;;;35.80;28.88;;;10.90;99.90;;;;;;5092357;28;20046;-52
2022/04/15 03:35:20;;;;;;;41.20;31.67;;;11.10;99.90;;;;;;5095596;28;20097;-51
2022/04/15 03:38:04;;;;;;;37.70;28.85;;;11.00;99.90;;;;;;5113415;28;20043;-52
2022/04/15 03:40:48;;;;;;;39.17;29.67;;;11.00;99.90;;;;;;5112322;28;20034;-51
2022/04/15 03:43:33;;;;;;;34.77;29.07;;;10.80;99.90;;;;;;5128321;27;20853;-51
2022/04/15 03:46:17;;;;;;;34.65;28.38;;;10.90;99.90;;;;;;5111052;27;20273;-48
2022/04/15 03:49:02;;;;;;;33.80;28.20;;;10.80;99.90;;;;;;5093145;28;20065;-51
2022/04/15 03:51:46;;;;;;;32.73;27.63;;;10.80;99.90;;;;;;5107647;28;20419;-48
2022/04/15 03:54:30;;;;;;;33.42;27.25;;;10.80;99.90;;;;;;5113218;28;20106;-50
2022/04/15 03:57:14;;;;;;;29.73;25.60;;;10.80;99.90;;;;;;5112039;28;20624;-52
2022/04/15 03:59:58;;;;;;;32.75;25.33;;;10.80;99.90;;;;;;5111766;28;20166;-51
2022/04/15 04:02:46;;;;;;;31.07;24.83;;;10.70;99.90;;;;;;5092510;28;20120;-54
2022/04/15 04:05:31;;;;;;;29.83;24.58;;;10.80;99.90;;;;;;5068536;28;20037;-53
2022/04/15 04:08:15;;;;;;;30.87;24.17;;;10.90;99.90;;;;;;5113436;28;20065;-54
2022/04/15 04:10:59;;;;;;;26.93;23.70;;;10.90;99.90;;;;;;5103832;28;20018;-50
2022/04/15 04:13:43;;;;;;;32.72;25.10;;;10.90;99.90;;;;;;5083296;28;20046;-50
2022/04/15 04:16:27;;;;;;;;;;;10.90;99.90;;;;;;5113356;28;20023;-54
2022/04/15 04:19:12;;;;;;;27.50;23.10;;;10.80;99.90;;;;;;5103349;28;20006;-53
2022/04/15 04:21:56;;;;;;;31.70;22.38;;;10.80;99.90;;;;;;5092992;28;20035;-52
2022/04/15 04:24:40;;;;;;;31.30;24.83;;;10.80;99.90;;;;;;5092706;28;20065;-48
2022/04/15 04:27:24;;;;;;;29.17;23.83;;;10.60;99.90;;;;;;5098308;28;20355;-49
2022/04/15 04:30:12;;;;;;;31.02;22.10;;;10.60;99.90;;;;;;5116812;28;20066;-47
2022/04/15 04:32:59;;;;;;;26.63;21.05;;;10.50;99.90;;;;;;5106457;28;20032;-49
2022/04/15 04:35:43;;;;;;;23.70;19.83;;;10.40;99.90;;;;;;5096432;28;20086;-50
2022/04/15 04:38:27;;;;;;;24.80;20.17;;;10.30;99.90;;;;;;5109675;28;20035;-48
2022/04/15 04:41:11;;;;;;;22.47;17.73;;;10.30;99.90;;;;;;5115985;27;20070;-49
2022/04/15 04:43:55;;;;;;;23.30;17.70;;;10.20;99.90;;;;;;5116689;27;20050;-52
2022/04/15 04:46:40;;;;;;;25.35;16.35;;;10.10;99.90;;;;;;5116116;28;20161;-54
2022/04/15 04:49:24;;;;;;;22.87;17.07;;;10.00;99.90;;;;;;5116015;28;20050;-49
2022/04/15 04:52:08;;;;;;;20.25;16.52;;;10.00;99.90;;;;;;5114889;28;20070;-52
2022/04/15 04:54:52;;;;;;;22.20;16.30;;;10.00;99.90;;;;;;5095520;28;20034;-53
2022/04/15 04:57:38;;;;;;;21.27;16.17;;;10.00;99.90;;;;;;5096947;28;20505;-51
2022/04/15 05:00:23;;;;;;;22.52;16.08;;;9.90;99.90;;;;;;5098259;28;20123;-48
2022/04/15 05:03:07;;;;;;;21.73;16.23;;;9.90;99.90;;;;;;5114260;28;20461;-52
2022/04/15 05:05:51;;;;;;;20.52;16.58;;;9.70;99.90;;;;;;5115094;28;20034;-53
2022/04/15 05:08:35;;;;;;;22.77;16.02;;;9.70;99.90;;;;;;5111186;28;20527;-50
2022/04/15 05:11:19;;;;;;;24.02;16.42;;;9.70;99.90;;;;;;5080063;28;20614;-53
2022/04/15 05:14:03;;;;;;;22.45;15.98;;;9.80;99.90;;;;;;5103067;28;20046;-52
2022/04/15 05:16:47;;;;;;;25.83;16.47;;;9.60;99.90;;;;;;5116311;28;20053;-53
2022/04/15 05:19:32;;;;;;;20.90;15.83;;;9.40;99.90;;;;;;5096801;28;20479;-52
2022/04/15 05:22:16;;;;;;;20.88;15.25;;;9.40;99.90;;;;;;5100811;28;20115;-51
2022/04/15 05:25:00;;;;;;;24.65;15.38;;;9.40;99.90;;;;;;5116177;28;20042;-50
2022/04/15 05:27:44;;;;;;;20.80;14.37;;;9.30;99.90;;;;;;5108219;27;20040;-51
2022/04/15 05:30:28;;;;;;;18.17;13.45;;;9.40;99.90;;;;;;5095562;28;20063;-53
2022/04/15 05:33:12;;;;;;;19.38;14.32;;;9.40;99.90;;;;;;5112031;28;20136;-54
2022/04/15 05:35:57;;;;;;;16.10;12.77;;;9.30;99.90;;;;;;5116464;28;20089;-55
2022/04/15 05:38:41;;;;;;;16.73;12.60;;;9.40;99.90;;;;;;5080563;28;20043;-49
2022/04/15 05:41:25;;;;;;;15.82;11.82;;;9.20;99.90;;;;;;5107838;28;20082;-48
2022/04/15 05:44:12;;;;;;;18.23;11.45;;;9.20;99.90;;;;;;5115583;28;20034;-50
2022/04/15 05:46:57;;;;;;;15.90;10.88;;;9.20;99.90;;;;;;5116590;28;20051;-48
2022/04/15 05:49:41;;;;;;;12.70;10.32;;;9.20;99.90;;;;;;5116985;28;20517;-51
2022/04/15 05:52:25;;;;;;;13.45;10.73;;;9.30;99.90;;;;;;5096232;28;20055;-53
2022/04/15 05:55:09;;;;;;;13.18;9.50;;;9.30;99.90;;;;;;5114241;28;20061;-51
2022/04/15 05:57:53;;;;;;;10.65;8.95;;;9.20;99.90;;;;;;5115845;28;20042;-53
2022/04/15 06:00:38;;;;;;;11.90;9.27;;;9.30;99.90;;;;;;5100426;27;20046;-48
2022/04/15 06:03:22;;;;;;;14.15;10.10;;;9.30;99.90;;;;;;5094418;28;20393;-52
2022/04/15 06:06:06;;;;;;;12.98;10.05;;;9.30;99.90;;;;;;5095097;28;20043;-53
2022/04/15 06:08:51;;;;;;;12.30;9.67;;;9.40;99.90;;;;;;5094119;28;20109;-47
2022/04/15 06:11:35;;;;;;;13.55;10.98;;;9.40;99.90;;;;;;5108134;28;20319;-51
2022/04/15 06:14:23;;;;;;;14.95;10.45;;;9.50;99.90;;;;;;5094917;28;20090;-50
2022/04/15 06:17:07;;;;;;;13.05;10.13;;;9.50;99.90;;;;;;5098812;28;20107;-53
2022/04/15 06:19:51;;;;;;;13.10;10.40;;;9.70;99.90;;;;;;5108277;28;20046;-52
2022/04/15 06:22:36;;;;;;;12.38;9.88;;;9.80;99.90;;;;;;5103015;28;20054;-53
2022/04/15 06:25:20;;;;;;;;;;;9.90;99.90;;;;;;5094630;28;20458;-51
2022/04/15 06:28:05;;;;;;;13.15;9.90;;;9.90;99.90;;;;;;5103757;28;19957;-52
2022/04/15 06:30:50;;;;;;;16.52;9.15;;;10.00;99.90;;;;;;5088904;27;20107;-53
2022/04/15 06:33:36;;;;;;;12.32;8.82;;;10.00;99.90;;;;;;5134053;27;20388;-52
2022/04/15 06:36:20;;;;;;;11.18;9.65;;;9.90;99.90;;;;;;5121312;27;20046;-50
2022/04/15 06:39:05;;;;;;;14.07;9.17;;;9.90;99.90;;;;;;5102012;28;20061;-54
2022/04/15 06:41:49;;;;;;;11.13;8.80;;;9.90;99.90;;;;;;5111176;27;20306;-55
2022/04/15 06:44:36;;;;;;;9.73;8.30;;;9.90;99.90;;;;;;5113312;28;20062;-51
2022/04/15 06:47:20;;;;;;;12.82;8.88;;;9.60;99.90;;;;;;5104770;28;20357;-54
2022/04/15 06:50:05;;;;;;;13.15;9.65;;;9.50;99.90;;;;;;5099886;28;20395;-53
2022/04/15 06:52:50;;;;;;;;;;;9.50;99.90;;;;;;5102969;28;20123;-54
2022/04/15 06:55:37;;;;;;;10.80;9.45;;;9.40;99.90;;;;;;5112514;28;19970;-56
2022/04/15 06:58:21;;;;;;;9.98;8.23;;;9.30;99.90;;;;;;5110177;28;20595;-55
2022/04/15 07:01:05;;;;;;;9.07;7.20;;;9.20;99.90;;;;;;5095357;28;20161;-50
2022/04/15 07:03:49;;;;;;;7.00;6.17;;;9.20;99.90;;;;;;5092676;28;20389;-54
2022/04/15 07:06:33;;;;;;;6.18;5.57;;;9.30;99.90;;;;;;5107762;28;20276;-56
2022/04/15 07:09:18;;;;;;;6.90;6.20;;;9.40;99.90;;;;;;5113532;28;20127;-54
2022/04/15 07:12:02;;;;;;;9.35;6.60;;;9.40;99.90;;;;;;5113650;28;20026;-52
2022/04/15 07:14:46;;;;;;;9.20;7.28;;;9.30;99.90;;;;;;5114265;28;20114;-52
2022/04/15 07:17:30;;;;;;;9.98;7.45;;;9.30;99.90;;;;;;5116830;28;20034;-52
2022/04/15 07:20:14;;;;;;;9.33;7.37;;;9.30;99.90;;;;;;5117322;28;20035;-51
2022/04/15 07:22:59;;;;;;;10.05;6.53;;;9.30;99.90;;;;;;5107419;28;20046;-52
2022/04/15 07:25:44;;;;;;;7.25;6.43;;;9.50;99.90;;;;;;5113950;28;20049;-56
2022/04/15 07:28:28;;;;;;;8.73;7.00;;;9.60;99.90;;;;;;5112131;28;20450;-51
2022/04/15 07:31:12;;;;;;;8.97;6.67;;;9.50;99.90;;;;;;5113166;28;20047;-50
2022/04/15 07:33:56;;;;;;;8.43;6.43;;;9.60;99.90;;;;;;5113238;28;20682;-52
2022/04/15 07:39:24;;;;;;;8.80;6.97;;;9.50;99.90;;;;;;5113203;28;20042;-57
2022/04/15 07:42:11;;;;;;;9.27;6.13;;;9.60;99.90;;;;;;5121759;27;20042;-54
2022/04/15 07:44:55;;;;;;;8.10;6.60;;;9.70;99.90;;;;;;5118846;28;20029;-56
2022/04/15 07:47:39;;;;;;;7.88;6.72;;;9.80;99.90;;;;;;5133701;27;20071;-55
2022/04/15 07:50:25;;;;;;;14.77;10.00;;;9.70;99.90;;;;;;5133409;28;20042;-55
2022/04/15 07:53:09;;;;;;;12.70;7.97;;;9.70;99.90;;;;;;5132943;28;20052;-57
2022/04/15 07:55:53;;;;;;;9.17;6.90;;;9.70;99.90;;;;;;5117256;28;20069;-51
2022/04/15 07:58:38;;;;;;;8.57;7.07;;;9.70;99.90;;;;;;5133709;28;20271;-51
2022/04/15 08:01:22;;;;;;;9.35;6.97;;;9.60;99.90;;;;;;5133254;27;20053;-54
2022/04/15 08:04:06;;;;;;;15.68;9.95;;;9.60;99.90;;;;;;5136975;27;20046;-51
2022/04/15 08:06:50;;;;;;;7.82;6.75;;;9.50;99.90;;;;;;5136997;27;20023;-56
2022/04/15 08:09:34;;;;;;;11.43;8.88;;;9.60;99.90;;;;;;5138006;27;20062;-57
2022/04/15 08:12:18;;;;;;;11.80;7.85;;;9.50;99.90;;;;;;5137478;27;20074;-53
2022/04/15 08:15:03;;;;;;;7.97;7.13;;;9.40;99.90;;;;;;5137677;27;20062;-51
2022/04/15 08:17:47;;;;;;;10.13;7.50;;;9.40;99.90;;;;;;5136971;27;20046;-55
2022/04/15 08:20:32;;;;;;;10.07;7.57;;;9.40;99.90;;;;;;5137350;27;20037;-54
2022/04/15 08:23:16;;;;;;;14.88;9.77;;;9.40;99.90;;;;;;5121293;27;20689;-54
2022/04/15 08:26:00;;;;;;;11.85;8.30;;;9.20;99.90;;;;;;5115942;28;20039;-54
2022/04/15 08:28:44;;;;;;;7.53;6.72;;;9.20;99.90;;;;;;5116726;28;20560;-53
2022/04/15 08:31:28;;;;;;;7.85;6.10;;;9.30;99.90;;;;;;5115826;28;20089;-51
2022/04/15 08:34:12;;;;;;;7.55;5.93;;;9.50;99.90;;;;;;5116354;28;20109;-48
2022/04/15 08:36:56;;;;;;;9.32;6.80;;;9.40;99.90;;;;;;5116707;28;20062;-53
2022/04/15 08:39:40;;;;;;;7.40;6.50;;;9.40;99.90;;;;;;5116664;28;20600;-53
2022/04/15 08:42:24;;;;;;;7.43;6.57;;;9.20;99.90;;;;;;5127278;27;20039;-54
2022/04/15 08:45:09;;;;;;;7.80;7.00;;;9.10;99.90;;;;;;5121450;27;20663;-51
2022/04/15 08:48:00;;;;;;;7.72;6.63;;;9.20;99.90;;;;;;5137107;27;20298;-55
2022/04/15 08:50:45;;;;;;;7.53;6.43;;;9.20;99.90;;;;;;5137292;27;20030;-52
2022/04/15 08:53:31;;;;;;;7.53;6.47;;;9.40;99.90;;;;;;5121221;27;20162;-55
2022/04/15 08:56:16;;;;;;;8.13;6.82;;;9.50;99.90;;;;;;5115643;27;20549;-52
2022/04/15 08:59:00;;;;;;;8.50;7.33;;;9.80;99.90;;;;;;5105899;28;20069;-54
2022/04/15 09:01:44;;;;;;;6.50;5.85;;;9.80;99.90;;;;;;5106389;28;20537;-56
2022/04/15 09:04:29;;;;;;;8.68;5.45;;;10.00;99.90;;;;;;5108668;28;20035;-55
2022/04/15 09:07:18;;;;;;;6.03;5.03;;;10.00;99.90;;;;;;5120587;27;20037;-53
2022/04/15 09:10:05;;;;;;;6.75;6.05;;;10.00;99.90;;;;;;5120867;27;20092;-56
2022/04/15 09:12:51;;;;;;;6.60;6.00;;;10.10;99.90;;;;;;5125632;27;20062;-54
2022/04/15 09:15:35;;;;;;;6.88;6.15;;;10.10;99.90;;;;;;5115012;28;20074;-55
2022/04/15 09:18:36;;;;;;;6.73;5.77;;;10.10;99.90;;;;;;5115853;28;20062;-53
2022/04/15 09:21:24;;;;;;;7.43;6.10;;;10.20;99.90;;;;;;5115937;28;20038;-50
2022/04/15 09:24:08;;;;;;;6.53;5.85;;;10.30;99.90;;;;;;5115221;28;20034;-54
2022/04/15 09:26:53;;;;;;;6.75;5.30;;;10.30;99.90;;;;;;5116139;27;20154;-52
2022/04/15 09:29:39;;;;;;;6.20;5.53;;;10.30;99.90;;;;;;5135957;27;20126;-55
2022/04/15 09:32:24;;;;;;;6.80;5.53;;;10.30;99.90;;;;;;5130739;27;20093;-53
2022/04/15 09:35:15;;;;;;;5.68;5.07;;;10.30;99.90;;;;;;5113152;27;20115;-51
2022/04/15 09:38:04;;;;;;;6.95;5.53;;;10.20;99.90;;;;;;5136329;27;20030;-54
2022/04/15 09:40:48;;;;;;;5.75;5.15;;;10.30;99.90;;;;;;5120659;27;20545;-54
2022/04/15 09:43:32;;;;;;;5.15;4.65;;;10.40;99.90;;;;;;5135776;27;20087;-55
2022/04/15 09:46:20;;;;;;;6.05;4.53;;;10.40;99.90;;;;;;5136136;27;20061;-55
2022/04/15 09:49:07;;;;;;;5.30;4.80;;;10.30;99.90;;;;;;5136116;27;20176;-51
2022/04/15 09:51:54;;;;;;;8.10;4.88;;;10.30;99.90;;;;;;5135166;27;20075;-54
2022/04/15 09:54:40;;;;;;;6.15;5.55;;;10.30;99.90;;;;;;5134602;27;20042;-54
2022/04/15 09:57:33;;;;;;;5.90;5.30;;;10.30;99.90;;;;;;5135114;27;20088;-55
2022/04/15 10:00:19;;;;;;;6.65;5.38;;;10.40;99.90;;;;;;5135527;27;20048;-51
2022/04/15 10:03:09;;;;;;;6.70;5.75;;;10.50;99.90;;;;;;5134898;27;20069;-54
2022/04/15 10:05:58;;;;;;;7.50;5.75;;;10.40;99.90;;;;;;5136086;27;20034;-55
2022/04/15 10:08:43;;;;;;;7.00;5.45;;;10.30;99.90;;;;;;5135790;27;20141;-55
2022/04/15 10:11:28;;;;;;;;;;;10.30;99.90;;;;;;5136309;27;20168;-54
2022/04/15 10:14:13;;;;;;;6.43;5.72;;;10.40;99.90;;;;;;5135919;27;19922;-54
2022/04/15 10:16:58;;;;;;;6.63;5.93;;;10.20;99.90;;;;;;5135185;27;20126;-52
2022/04/15 10:19:44;;;;;;;6.38;5.78;;;10.40;99.90;;;;;;5134718;27;20029;-53
2022/04/15 10:22:30;;;;;;;6.95;5.93;;;10.50;99.90;;;;;;5105705;27;20118;-55
2022/04/15 10:25:14;;;;;;;;;;;10.50;99.90;;;;;;5134995;27;20025;-54
2022/04/15 10:28:08;;;;;;;7.28;6.47;;;10.40;99.90;;;;;;5116766;27;19910;-51
2022/04/15 10:31:13;;;;;;;6.72;6.07;;;10.40;99.90;;;;;;5114674;28;20130;-53
2022/04/15 10:34:12;;;;;;;8.35;6.80;;;10.50;99.90;;;;;;5114182;28;20513;-52
2022/04/15 10:36:56;;;;;;;7.90;6.70;;;10.70;99.90;;;;;;5114440;28;20204;-52
2022/04/15 10:39:48;;;;;;;7.93;6.43;;;10.70;99.90;;;;;;5114498;28;20043;-52
2022/04/15 10:42:32;;;;;;;6.75;6.07;;;10.90;99.90;;;;;;5114149;28;20406;-52
2022/04/15 10:45:34;;;;;;;6.97;6.27;;;10.90;99.90;;;;;;5114294;28;20501;-55
2022/04/15 10:48:32;;;;;;;7.40;6.63;;;11.10;99.90;;;;;;5113882;28;20268;-52
2022/04/15 10:51:25;;;;;;;7.03;6.30;;;11.20;99.90;;;;;;5113713;28;20041;-53
2022/04/15 10:54:38;;;;;;;8.82;6.13;;;11.20;99.90;;;;;;5114181;28;20034;-52
2022/04/15 10:57:29;;;;;;;7.80;6.47;;;11.20;99.90;;;;;;5116181;28;20157;-53
2022/04/15 11:03:29;;;;;;;8.10;7.30;;;11.00;99.90;;;;;;5115552;28;20035;-55
2022/04/15 11:06:26;;;;;;;9.60;7.35;;;11.20;99.90;;;;;;5113580;28;20406;-52
2022/04/15 11:09:15;;;;;;;7.97;6.93;;;11.10;99.90;;;;;;5113588;28;20042;-52
2022/04/15 11:12:03;;;;;;;8.95;6.90;;;11.00;99.90;;;;;;5113040;28;20031;-54
2022/04/15 11:14:47;;;;;;;8.02;7.00;;;10.70;99.90;;;;;;5113311;28;20038;-54
2022/04/15 11:17:47;;;;;;;7.38;6.40;;;10.70;99.90;;;;;;5113587;28;20027;-53
2022/04/15 11:20:32;;;;;;;8.70;6.38;;;10.90;99.90;;;;;;5113171;28;20100;-56
2022/04/15 11:23:16;;;;;;;7.53;6.82;;;11.10;99.90;;;;;;5112938;28;20026;-53
2022/04/15 11:26:02;;;;;;;8.15;7.28;;;11.00;99.90;;;;;;5112734;28;20031;-53
2022/04/15 11:28:48;;;;;;;10.90;8.40;;;11.10;99.90;;;;;;5112945;28;20061;-54
2022/04/15 11:31:35;;;;;;;10.77;8.10;;;11.10;99.90;;;;;;5112656;28;20482;-55
2022/04/15 11:34:20;;;;;;;8.60;7.70;;;11.20;99.90;;;;;;5113539;28;20059;-54
2022/04/15 11:37:06;;;;;;;9.02;7.75;;;11.10;99.90;;;;;;5112990;28;20039;-55
2022/04/15 11:39:50;;;;;;;9.13;8.15;;;10.90;99.90;;;;;;5114227;28;20111;-56
2022/04/15 11:42:34;;;;;;;10.65;8.60;;;10.90;99.90;;;;;;5125475;28;20516;-54
2022/04/15 11:45:30;;;;;;;11.93;10.03;;;10.80;99.90;;;;;;5133570;27;20096;-51
2022/04/15 11:48:23;;;;;;;11.20;10.05;;;10.70;99.90;;;;;;5134276;27;20264;-52
2022/04/15 11:51:07;;;;;;;11.30;10.10;;;10.70;99.90;;;;;;5133991;27;20030;-55
2022/04/15 11:53:51;;;;;;;12.40;10.25;;;10.60;99.90;;;;;;5133822;28;20038;-55
2022/04/15 11:56:35;;;;;;;11.75;10.57;;;10.70;99.90;;;;;;5132956;28;20117;-55
2022/04/15 11:59:20;;;;;;;11.75;10.00;;;10.80;99.90;;;;;;5133520;28;20547;-54
2022/04/15 12:02:05;;;;;;;11.98;10.35;;;11.00;99.90;;;;;;5133509;28;20598;-55
2022/04/15 12:04:55;;;;;;;10.98;9.88;;;10.80;99.90;;;;;;5134096;28;20081;-55
2022/04/15 12:07:39;;;;;;;11.45;10.18;;;10.80;99.90;;;;;;5133959;28;20029;-51
2022/04/15 12:10:24;;;;;;;10.55;9.45;;;11.00;99.90;;;;;;5133957;28;20431;-55
2022/04/15 12:13:08;;;;;;;11.02;9.55;;;11.10;99.90;;;;;;5133155;28;20112;-54
2022/04/15 12:15:53;;;;;;;11.48;9.82;;;11.10;99.90;;;;;;5133304;28;20069;-56
2022/04/15 12:18:37;;;;;;;10.73;9.63;;;10.90;99.90;;;;;;5117830;28;20026;-52
2022/04/15 12:21:22;;;;;;;12.77;9.80;;;11.00;99.90;;;;;;5133536;28;20219;-54
2022/04/15 12:24:11;;;;;;;9.75;8.70;;;11.00;99.90;;;;;;5120327;28;20065;-54
2022/04/15 12:26:56;;;;;;;10.40;9.30;;;11.00;99.90;;;;;;5107766;28;20026;-52
2022/04/15 12:29:51;;;;;;;10.75;9.65;;;11.00;99.90;;;;;;5097380;28;20592;-53
2022/04/15 12:32:35;;;;;;;10.38;9.10;;;11.00;99.90;;;;;;5097824;28;20043;-54
2022/04/15 12:35:20;;;;;;;11.02;9.88;;;11.00;99.90;;;;;;5097349;28;20042;-53
2022/04/15 12:38:06;;;;;;;12.90;11.50;;;11.00;99.90;;;;;;5112651;28;20419;-51
2022/04/15 12:40:50;;;;;;;12.38;10.30;;;10.80;99.90;;;;;;5112986;28;20076;-53
2022/04/15 12:43:34;;;;;;;11.45;10.25;;;10.80;99.90;;;;;;5091270;28;20569;-53
2022/04/15 12:46:18;;;;;;;12.47;10.67;;;10.70;99.90;;;;;;5077585;28;20514;-55
2022/04/15 12:49:02;;;;;;;13.38;11.98;;;10.60;99.90;;;;;;5094527;28;20158;-53
2022/04/15 12:51:46;;;;;;;15.95;14.25;;;10.60;99.90;;;;;;5081118;28;20066;-51
2022/04/15 12:54:30;;;;;;;15.57;13.60;;;10.50;99.90;;;;;;5096421;28;20043;-51
2022/04/15 12:57:18;;;;;;;16.77;13.05;;;10.50;99.90;;;;;;5096391;28;20518;-54
2022/04/15 13:00:12;;;;;;;17.15;13.70;;;10.50;99.90;;;;;;5096383;28;20054;-54
2022/04/15 13:02:57;;;;;;;14.15;12.65;;;10.40;99.90;;;;;;5095519;28;20032;-53
2022/04/15 13:05:41;;;;;;;13.83;12.40;;;10.50;99.90;;;;;;5095701;28;20541;-55
2022/04/15 13:08:26;;;;;;;14.40;12.90;;;10.60;99.90;;;;;;5098160;28;20079;-52
2022/04/15 13:11:10;;;;;;;14.38;12.52;;;10.90;99.90;;;;;;5096857;28;20096;-56
2022/04/15 13:13:54;;;;;;;14.93;12.10;;;10.90;99.90;;;;;;5095535;28;20112;-51
2022/04/15 13:16:38;;;;;;;13.30;11.73;;;10.90;99.90;;;;;;5095467;28;20077;-48
2022/04/15 13:19:23;;;;;;;11.43;10.30;;;11.00;99.90;;;;;;5095447;28;20058;-50
2022/04/15 13:22:07;;;;;;;12.52;9.93;;;11.10;99.90;;;;;;5095353;28;20827;-51
2022/04/15 13:24:51;;;;;;;10.75;9.65;;;11.20;99.90;;;;;;5112276;28;20122;-53
2022/04/15 13:27:36;;;;;;;10.68;9.68;;;11.30;99.90;;;;;;5116088;28;20050;-52
2022/04/15 13:30:20;;;;;;;10.70;9.60;;;11.40;99.90;;;;;;5115613;28;20054;-53
2022/04/15 13:33:19;;;;;;;11.07;9.23;;;11.40;99.90;;;;;;5117021;28;20119;-57
2022/04/15 13:36:04;;;;;;;14.15;10.52;;;11.40;99.90;;;;;;5114433;28;20043;-52
2022/04/15 13:38:48;;;;;;;11.48;9.80;;;11.30;99.90;;;;;;5115366;28;20039;-52
2022/04/15 13:41:33;;;;;;;10.52;9.43;;;11.40;99.90;;;;;;5115123;28;20035;-47
2022/04/15 13:44:17;;;;;;;9.95;8.90;;;11.30;99.90;;;;;;5100102;28;20118;-49
2022/04/15 13:47:03;;;;;;;9.03;8.07;;;11.40;99.90;;;;;;5116124;28;20069;-47
2022/04/15 13:49:48;;;;;;;11.68;9.25;;;11.40;99.90;;;;;;5115196;28;20066;-53
2022/04/15 13:58:39;;;;;;;10.93;8.30;;;11.40;99.90;;;;;;5114985;28;20043;-50
2022/04/15 14:01:27;;;;;;;11.95;9.05;;;11.40;99.90;;;;;;5114556;28;20544;-54
2022/04/15 14:04:13;;;;;;;12.02;8.85;;;11.30;99.90;;;;;;5114372;28;20089;-49
2022/04/15 14:06:58;;;;;;;11.45;9.10;;;11.30;99.90;;;;;;5114787;28;20514;-51
2022/04/15 14:09:42;;;;;;;13.10;9.40;;;11.40;99.90;;;;;;5115552;28;20118;-49
2022/04/15 14:12:26;;;;;;;10.07;8.90;;;11.40;99.90;;;;;;5114873;28;20035;-50
2022/04/15 14:15:10;;;;;;;12.50;10.20;;;11.40;99.90;;;;;;5099023;28;20034;-51
2022/04/15 14:17:58;;;;;;;10.10;9.07;;;11.30;99.90;;;;;;5114814;28;20034;-50
2022/04/15 14:20:42;;;;;;;10.52;8.75;;;11.30;99.90;;;;;;5115168;28;20046;-50
2022/04/15 14:23:27;;;;;;;11.23;9.48;;;11.30;99.90;;;;;;5114216;28;20034;-50